sensor_id;sensor_type;location;lat;lon;timestamp;temperature;humidity
30678;DHT22;17437;47.188;8.896;2023-01-15T00:00:47;8.00;99.90
30678;DHT22;17437;47.188;8.896;2023-01-15T00:03:21;7.90;99.90
30678;DHT22;17437;47.188;8.896;2023-01-15T00:05:54;7.80;99.90
30678;DHT22;17437;47.188;8.896;2023-01-15T00:08:46;7.70;99.90
30678;DHT22;17437;47.188;8.896;2023-01-15T00:11:20;7.60;99.90
30678;DHT22;17437;47.188;8.896;2023-01-15T00:13:52;7.60;99.90
30678;DHT22;17437;47.188;8.896;2023-01-15T00:16:25;7.50;99.90
30678;DHT22;17437;47.188;8.896;2023-01-15T00:18:58;7.50;99.90
30678;DHT22;17437;47.188;8.896;2023-01-15T00:21:30;7.50;99.90
30678;DHT22;17437;47.188;8.896;2023-01-15T00:24:02;7.50;99.90
30678;DHT22;17437;47.188;8.896;2023-01-15T00:26:51;7.50;99.90
30678;DHT22;17437;47.188;8.896;2023-01-15T00:29:40;7.50;99.90
30678;DHT22;17437;47.188;8.896;2023-01-15T00:32:11;7.40;99.90
30678;DHT22;17437;47.188;8.896;2023-01-15T00:34:44;7.30;99.90
30678;DHT22;17437;47.188;8.896;2023-01-15T00:37:16;7.20;99.90
30678;DHT22;17437;47.188;8.896;2023-01-15T00:39:49;7.20;99.90
30678;DHT22;17437;47.188;8.896;2023-01-15T00:42:20;7.10;99.90
30678;DHT22;17437;47.188;8.896;2023-01-15T00:44:52;7.00;99.90
30678;DHT22;17437;47.188;8.896;2023-01-15T00:47:24;7.10;99.90
30678;DHT22;17437;47.188;8.896;2023-01-15T00:49:55;7.10;99.90
30678;DHT22;17437;47.188;8.896;2023-01-15T00:52:27;7.10;99.90
30678;DHT22;17437;47.188;8.896;2023-01-15T00:54:58;7.10;99.90
30678;DHT22;17437;47.188;8.896;2023-01-15T00:57:30;7.10;99.90
30678;DHT22;17437;47.188;8.896;2023-01-15T01:00:01;7.10;99.90
30678;DHT22;17437;47.188;8.896;2023-01-15T01:02:33;7.20;99.90
30678;DHT22;17437;47.188;8.896;2023-01-15T01:05:06;7.20;99.90
30678;DHT22;17437;47.188;8.896;2023-01-15T01:07:38;7.20;99.90
30678;DHT22;17437;47.188;8.896;2023-01-15T01:10:11;7.20;99.90
30678;DHT22;17437;47.188;8.896;2023-01-15T01:12:42;7.30;99.90
30678;DHT22;17437;47.188;8.896;2023-01-15T01:15:14;7.30;99.90
30678;DHT22;17437;47.188;8.896;2023-01-15T01:17:46;7.30;99.90
30678;DHT22;17437;47.188;8.896;2023-01-15T01:20:18;7.40;99.90
30678;DHT22;17437;47.188;8.896;2023-01-15T01:22:50;7.40;99.90
30678;DHT22;17437;47.188;8.896;2023-01-15T01:25:21;7.40;99.90
30678;DHT22;17437;47.188;8.896;2023-01-15T01:27:53;7.40;99.90
30678;DHT22;17437;47.188;8.896;2023-01-15T01:30:24;7.50;99.90
30678;DHT22;17437;47.188;8.896;2023-01-15T01:32:56;7.50;99.90
30678;DHT22;17437;47.188;8.896;2023-01-15T01:35:27;7.70;99.90
30678;DHT22;17437;47.188;8.896;2023-01-15T01:37:59;7.90;99.90
30678;DHT22;17437;47.188;8.896;2023-01-15T01:40:30;7.90;99.90
30678;DHT22;17437;47.188;8.896;2023-01-15T01:43:02;7.90;99.90
30678;DHT22;17437;47.188;8.896;2023-01-15T01:45:34;7.90;99.90
30678;DHT22;17437;47.188;8.896;2023-01-15T01:48:07;7.90;99.90
30678;DHT22;17437;47.188;8.896;2023-01-15T01:50:39;7.90;99.90
30678;DHT22;17437;47.188;8.896;2023-01-15T01:53:14;7.80;99.90
30678;DHT22;17437;47.188;8.896;2023-01-15T01:55:46;7.70;99.90
30678;DHT22;17437;47.188;8.896;2023-01-15T01:58:18;7.60;99.90
30678;DHT22;17437;47.188;8.896;2023-01-15T02:00:51;7.60;99.90
30678;DHT22;17437;47.188;8.896;2023-01-15T02:03:25;7.50;99.90
30678;DHT22;17437;47.188;8.896;2023-01-15T02:06:00;7.60;99.90
30678;DHT22;17437;47.188;8.896;2023-01-15T02:08:33;7.50;99.90
30678;DHT22;17437;47.188;8.896;2023-01-15T02:11:06;7.50;99.90
30678;DHT22;17437;47.188;8.896;2023-01-15T02:13:39;7.50;99.90
30678;DHT22;17437;47.188;8.896;2023-01-15T02:16:14;7.50;99.90
30678;DHT22;17437;47.188;8.896;2023-01-15T02:18:49;7.50;99.90
30678;DHT22;17437;47.188;8.896;2023-01-15T02:21:25;7.50;99.90
30678;DHT22;17437;47.188;8.896;2023-01-15T02:24:06;7.50;99.90
30678;DHT22;17437;47.188;8.896;2023-01-15T02:26:56;7.50;99.90
30678;DHT22;17437;47.188;8.896;2023-01-15T02:29:37;7.50;99.90
30678;DHT22;17437;47.188;8.896;2023-01-15T02:32:12;7.50;99.90
30678;DHT22;17437;47.188;8.896;2023-01-15T02:34:47;7.60;99.90
30678;DHT22;17437;47.188;8.896;2023-01-15T02:37:23;7.60;99.90
30678;DHT22;17437;47.188;8.896;2023-01-15T02:39:58;7.60;99.90
30678;DHT22;17437;47.188;8.896;2023-01-15T02:42:30;7.60;99.90
30678;DHT22;17437;47.188;8.896;2023-01-15T02:45:06;7.50;99.90
30678;DHT22;17437;47.188;8.896;2023-01-15T02:47:40;7.40;99.90
30678;DHT22;17437;47.188;8.896;2023-01-15T02:50:17;7.30;99.90
30678;DHT22;17437;47.188;8.896;2023-01-15T02:52:50;7.30;99.90
30678;DHT22;17437;47.188;8.896;2023-01-15T02:55:26;7.30;99.90
30678;DHT22;17437;47.188;8.896;2023-01-15T02:58:01;7.20;99.90
30678;DHT22;17437;47.188;8.896;2023-01-15T03:00:37;7.30;99.90
30678;DHT22;17437;47.188;8.896;2023-01-15T03:03:11;7.30;99.90
30678;DHT22;17437;47.188;8.896;2023-01-15T03:05:47;7.20;99.90
30678;DHT22;17437;47.188;8.896;2023-01-15T03:08:20;7.30;99.90
30678;DHT22;17437;47.188;8.896;2023-01-15T03:10:58;7.30;99.90
30678;DHT22;17437;47.188;8.896;2023-01-15T03:13:33;7.30;99.90
30678;DHT22;17437;47.188;8.896;2023-01-15T03:16:07;7.30;99.90
30678;DHT22;17437;47.188;8.896;2023-01-15T03:18:59;7.30;99.90
30678;DHT22;17437;47.188;8.896;2023-01-15T03:21:35;7.30;99.90
30678;DHT22;17437;47.188;8.896;2023-01-15T03:24:09;7.30;99.90
30678;DHT22;17437;47.188;8.896;2023-01-15T03:26:41;7.40;99.90
30678;DHT22;17437;47.188;8.896;2023-01-15T03:29:14;7.40;99.90
30678;DHT22;17437;47.188;8.896;2023-01-15T03:31:47;7.40;99.90
30678;DHT22;17437;47.188;8.896;2023-01-15T03:34:20;7.40;99.90
30678;DHT22;17437;47.188;8.896;2023-01-15T03:36:53;7.40;99.90
30678;DHT22;17437;47.188;8.896;2023-01-15T03:39:25;7.50;99.90
30678;DHT22;17437;47.188;8.896;2023-01-15T03:42:04;7.60;99.90
30678;DHT22;17437;47.188;8.896;2023-01-15T03:44:39;7.70;99.90
30678;DHT22;17437;47.188;8.896;2023-01-15T03:47:18;7.70;99.90
30678;DHT22;17437;47.188;8.896;2023-01-15T03:49:54;7.70;99.90
30678;DHT22;17437;47.188;8.896;2023-01-15T03:52:28;7.70;99.90
30678;DHT22;17437;47.188;8.896;2023-01-15T03:55:05;7.60;99.90
30678;DHT22;17437;47.188;8.896;2023-01-15T03:57:40;7.70;99.90
30678;DHT22;17437;47.188;8.896;2023-01-15T04:00:17;7.70;99.90
30678;DHT22;17437;47.188;8.896;2023-01-15T04:02:50;7.70;99.90
30678;DHT22;17437;47.188;8.896;2023-01-15T04:05:24;7.70;99.90
30678;DHT22;17437;47.188;8.896;2023-01-15T04:07:57;7.80;99.90
30678;DHT22;17437;47.188;8.896;2023-01-15T04:10:29;7.70;99.90
30678;DHT22;17437;47.188;8.896;2023-01-15T04:13:01;7.60;99.90
30678;DHT22;17437;47.188;8.896;2023-01-15T04:15:32;7.50;99.90
30678;DHT22;17437;47.188;8.896;2023-01-15T04:18:04;7.40;99.90
30678;DHT22;17437;47.188;8.896;2023-01-15T04:20:36;7.50;99.90
30678;DHT22;17437;47.188;8.896;2023-01-15T04:23:07;7.50;99.90
30678;DHT22;17437;47.188;8.896;2023-01-15T04:25:39;7.50;99.90
30678;DHT22;17437;47.188;8.896;2023-01-15T04:28:11;7.50;99.90
30678;DHT22;17437;47.188;8.896;2023-01-15T04:30:42;7.50;99.90
30678;DHT22;17437;47.188;8.896;2023-01-15T04:33:14;7.30;99.90
30678;DHT22;17437;47.188;8.896;2023-01-15T04:35:46;7.20;99.90
30678;DHT22;17437;47.188;8.896;2023-01-15T04:38:17;7.00;99.90
30678;DHT22;17437;47.188;8.896;2023-01-15T04:40:49;6.90;99.90
30678;DHT22;17437;47.188;8.896;2023-01-15T04:43:42;6.80;99.90
30678;DHT22;17437;47.188;8.896;2023-01-15T04:46:32;6.70;99.90
30678;DHT22;17437;47.188;8.896;2023-01-15T04:49:04;6.70;99.90
30678;DHT22;17437;47.188;8.896;2023-01-15T04:51:35;6.60;99.90
30678;DHT22;17437;47.188;8.896;2023-01-15T04:54:10;6.60;99.90
30678;DHT22;17437;47.188;8.896;2023-01-15T04:56:44;6.60;99.90
30678;DHT22;17437;47.188;8.896;2023-01-15T04:59:18;6.50;99.90
30678;DHT22;17437;47.188;8.896;2023-01-15T05:01:50;6.50;99.90
30678;DHT22;17437;47.188;8.896;2023-01-15T05:04:24;6.50;99.90
30678;DHT22;17437;47.188;8.896;2023-01-15T05:06:55;6.50;99.90
30678;DHT22;17437;47.188;8.896;2023-01-15T05:09:27;6.50;99.90
30678;DHT22;17437;47.188;8.896;2023-01-15T05:11:58;6.50;99.90
30678;DHT22;17437;47.188;8.896;2023-01-15T05:14:31;6.50;99.90
30678;DHT22;17437;47.188;8.896;2023-01-15T05:17:03;6.50;99.90
30678;DHT22;17437;47.188;8.896;2023-01-15T05:19:36;6.40;99.90
30678;DHT22;17437;47.188;8.896;2023-01-15T05:22:07;6.40;99.90
30678;DHT22;17437;47.188;8.896;2023-01-15T05:24:39;6.40;99.90
30678;DHT22;17437;47.188;8.896;2023-01-15T05:27:12;6.60;99.90
30678;DHT22;17437;47.188;8.896;2023-01-15T05:29:43;6.60;99.90
30678;DHT22;17437;47.188;8.896;2023-01-15T05:32:15;6.50;99.90
30678;DHT22;17437;47.188;8.896;2023-01-15T05:34:46;6.40;99.90
30678;DHT22;17437;47.188;8.896;2023-01-15T05:37:17;6.40;99.90
30678;DHT22;17437;47.188;8.896;2023-01-15T05:39:49;6.40;99.90
30678;DHT22;17437;47.188;8.896;2023-01-15T05:42:20;6.30;99.90
30678;DHT22;17437;47.188;8.896;2023-01-15T05:44:52;6.30;99.90
30678;DHT22;17437;47.188;8.896;2023-01-15T05:47:23;6.30;99.90
30678;DHT22;17437;47.188;8.896;2023-01-15T05:49:55;6.30;99.90
30678;DHT22;17437;47.188;8.896;2023-01-15T05:52:26;6.30;99.90
30678;DHT22;17437;47.188;8.896;2023-01-15T05:54:57;6.30;99.90
30678;DHT22;17437;47.188;8.896;2023-01-15T05:57:29;6.30;99.90
30678;DHT22;17437;47.188;8.896;2023-01-15T06:00:02;6.30;99.90
30678;DHT22;17437;47.188;8.896;2023-01-15T06:02:34;6.40;99.90
30678;DHT22;17437;47.188;8.896;2023-01-15T06:05:07;6.40;99.90
30678;DHT22;17437;47.188;8.896;2023-01-15T06:07:39;6.40;99.90
30678;DHT22;17437;47.188;8.896;2023-01-15T06:10:10;6.40;99.90
30678;DHT22;17437;47.188;8.896;2023-01-15T06:12:42;6.40;99.90
30678;DHT22;17437;47.188;8.896;2023-01-15T06:15:14;6.40;99.90
30678;DHT22;17437;47.188;8.896;2023-01-15T06:17:48;6.40;99.90
30678;DHT22;17437;47.188;8.896;2023-01-15T06:20:20;6.50;99.90
30678;DHT22;17437;47.188;8.896;2023-01-15T06:22:51;6.40;99.90
30678;DHT22;17437;47.188;8.896;2023-01-15T06:25:23;6.40;99.90
30678;DHT22;17437;47.188;8.896;2023-01-15T06:27:54;6.40;99.90
30678;DHT22;17437;47.188;8.896;2023-01-15T06:30:26;6.40;99.90
30678;DHT22;17437;47.188;8.896;2023-01-15T06:32:57;6.50;99.90
30678;DHT22;17437;47.188;8.896;2023-01-15T06:35:29;6.60;99.90
30678;DHT22;17437;47.188;8.896;2023-01-15T06:38:00;6.70;99.90
30678;DHT22;17437;47.188;8.896;2023-01-15T06:40:32;6.80;99.90
30678;DHT22;17437;47.188;8.896;2023-01-15T06:43:03;6.90;99.90
30678;DHT22;17437;47.188;8.896;2023-01-15T06:48:47;6.80;99.90
30678;DHT22;17437;47.188;8.896;2023-01-15T06:51:19;6.80;99.90
30678;DHT22;17437;47.188;8.896;2023-01-15T06:53:51;6.80;99.90
30678;DHT22;17437;47.188;8.896;2023-01-15T06:56:22;6.80;99.90
30678;DHT22;17437;47.188;8.896;2023-01-15T06:58:54;6.80;99.90
30678;DHT22;17437;47.188;8.896;2023-01-15T07:01:29;6.80;99.90
30678;DHT22;17437;47.188;8.896;2023-01-15T07:04:02;6.80;99.90
30678;DHT22;17437;47.188;8.896;2023-01-15T07:06:34;6.80;99.90
30678;DHT22;17437;47.188;8.896;2023-01-15T07:09:06;6.80;99.90
30678;DHT22;17437;47.188;8.896;2023-01-15T07:11:37;6.80;99.90
30678;DHT22;17437;47.188;8.896;2023-01-15T07:14:10;6.80;99.90
30678;DHT22;17437;47.188;8.896;2023-01-15T07:16:42;6.80;99.90
30678;DHT22;17437;47.188;8.896;2023-01-15T07:19:13;6.90;99.90
30678;DHT22;17437;47.188;8.896;2023-01-15T07:21:47;6.90;99.90
30678;DHT22;17437;47.188;8.896;2023-01-15T07:24:18;6.90;99.90
30678;DHT22;17437;47.188;8.896;2023-01-15T07:26:50;7.00;99.90
30678;DHT22;17437;47.188;8.896;2023-01-15T07:29:21;7.20;99.90
30678;DHT22;17437;47.188;8.896;2023-01-15T07:31:53;7.30;99.90
30678;DHT22;17437;47.188;8.896;2023-01-15T07:34:24;7.30;99.90
30678;DHT22;17437;47.188;8.896;2023-01-15T07:36:56;7.30;99.90
30678;DHT22;17437;47.188;8.896;2023-01-15T07:39:27;7.30;99.90
30678;DHT22;17437;47.188;8.896;2023-01-15T07:42:00;7.30;99.90
30678;DHT22;17437;47.188;8.896;2023-01-15T07:44:49;7.10;99.90
30678;DHT22;17437;47.188;8.896;2023-01-15T07:47:39;7.10;99.90
30678;DHT22;17437;47.188;8.896;2023-01-15T07:50:28;7.10;99.90
30678;DHT22;17437;47.188;8.896;2023-01-15T07:52:59;7.20;99.90
30678;DHT22;17437;47.188;8.896;2023-01-15T07:55:31;7.10;99.90
30678;DHT22;17437;47.188;8.896;2023-01-15T07:58:03;7.10;99.90
30678;DHT22;17437;47.188;8.896;2023-01-15T08:00:35;7.10;99.90
30678;DHT22;17437;47.188;8.896;2023-01-15T08:03:06;7.10;99.90
30678;DHT22;17437;47.188;8.896;2023-01-15T08:05:38;7.10;99.90
30678;DHT22;17437;47.188;8.896;2023-01-15T08:08:14;7.20;99.90
30678;DHT22;17437;47.188;8.896;2023-01-15T08:10:46;7.30;99.90
30678;DHT22;17437;47.188;8.896;2023-01-15T08:13:36;7.40;99.90
30678;DHT22;17437;47.188;8.896;2023-01-15T08:16:26;7.40;99.90
30678;DHT22;17437;47.188;8.896;2023-01-15T08:18:57;7.40;99.90
30678;DHT22;17437;47.188;8.896;2023-01-15T08:21:29;7.30;99.90
30678;DHT22;17437;47.188;8.896;2023-01-15T08:24:01;7.30;99.90
30678;DHT22;17437;47.188;8.896;2023-01-15T08:26:33;7.20;99.90
30678;DHT22;17437;47.188;8.896;2023-01-15T08:29:04;7.30;99.90
30678;DHT22;17437;47.188;8.896;2023-01-15T08:31:35;7.50;99.90
30678;DHT22;17437;47.188;8.896;2023-01-15T08:34:10;7.60;99.90
30678;DHT22;17437;47.188;8.896;2023-01-15T08:36:42;7.60;99.90
30678;DHT22;17437;47.188;8.896;2023-01-15T08:39:15;7.70;99.90
30678;DHT22;17437;47.188;8.896;2023-01-15T08:41:46;7.70;99.90
30678;DHT22;17437;47.188;8.896;2023-01-15T08:44:18;7.70;99.90
30678;DHT22;17437;47.188;8.896;2023-01-15T08:46:52;7.70;99.90
30678;DHT22;17437;47.188;8.896;2023-01-15T08:49:23;7.70;99.90
30678;DHT22;17437;47.188;8.896;2023-01-15T08:51:55;7.70;99.90
30678;DHT22;17437;47.188;8.896;2023-01-15T08:54:26;7.70;99.90
30678;DHT22;17437;47.188;8.896;2023-01-15T08:57:00;7.80;99.90
30678;DHT22;17437;47.188;8.896;2023-01-15T08:59:31;7.80;99.90
30678;DHT22;17437;47.188;8.896;2023-01-15T09:02:03;7.80;99.90
30678;DHT22;17437;47.188;8.896;2023-01-15T09:04:35;7.90;99.90
30678;DHT22;17437;47.188;8.896;2023-01-15T09:07:07;8.30;99.90
30678;DHT22;17437;47.188;8.896;2023-01-15T09:09:39;8.30;99.90
30678;DHT22;17437;47.188;8.896;2023-01-15T09:12:10;8.40;99.90
30678;DHT22;17437;47.188;8.896;2023-01-15T09:14:43;8.50;99.90
30678;DHT22;17437;47.188;8.896;2023-01-15T09:17:17;8.50;99.90
30678;DHT22;17437;47.188;8.896;2023-01-15T09:19:49;8.50;99.90
30678;DHT22;17437;47.188;8.896;2023-01-15T09:22:22;8.50;99.90
30678;DHT22;17437;47.188;8.896;2023-01-15T09:24:55;8.40;99.90
30678;DHT22;17437;47.188;8.896;2023-01-15T09:27:28;8.40;99.90
30678;DHT22;17437;47.188;8.896;2023-01-15T09:30:01;8.60;99.90
30678;DHT22;17437;47.188;8.896;2023-01-15T09:32:33;8.80;99.90
30678;DHT22;17437;47.188;8.896;2023-01-15T09:35:06;8.80;99.90
30678;DHT22;17437;47.188;8.896;2023-01-15T09:37:37;8.60;99.90
30678;DHT22;17437;47.188;8.896;2023-01-15T09:40:19;8.40;99.90
30678;DHT22;17437;47.188;8.896;2023-01-15T09:42:54;8.10;99.90
30678;DHT22;17437;47.188;8.896;2023-01-15T09:45:29;7.80;99.90
30678;DHT22;17437;47.188;8.896;2023-01-15T09:48:24;7.70;99.90
30678;DHT22;17437;47.188;8.896;2023-01-15T09:51:02;7.50;99.90
30678;DHT22;17437;47.188;8.896;2023-01-15T09:54:07;7.30;99.90
30678;DHT22;17437;47.188;8.896;2023-01-15T09:56:39;7.10;99.90
30678;DHT22;17437;47.188;8.896;2023-01-15T09:59:18;6.90;99.90
30678;DHT22;17437;47.188;8.896;2023-01-15T10:01:51;6.70;99.90
30678;DHT22;17437;47.188;8.896;2023-01-15T10:04:33;6.60;99.90
30678;DHT22;17437;47.188;8.896;2023-01-15T10:07:09;6.50;99.90
30678;DHT22;17437;47.188;8.896;2023-01-15T10:09:41;6.50;99.90
30678;DHT22;17437;47.188;8.896;2023-01-15T10:12:16;6.40;99.90
30678;DHT22;17437;47.188;8.896;2023-01-15T10:15:21;6.40;99.90
30678;DHT22;17437;47.188;8.896;2023-01-15T10:17:54;6.30;99.90
30678;DHT22;17437;47.188;8.896;2023-01-15T10:23:32;6.20;99.90
30678;DHT22;17437;47.188;8.896;2023-01-15T10:26:14;6.10;99.90
30678;DHT22;17437;47.188;8.896;2023-01-15T10:28:59;6.10;99.90
30678;DHT22;17437;47.188;8.896;2023-01-15T10:31:50;6.20;99.90
30678;DHT22;17437;47.188;8.896;2023-01-15T10:37:21;6.10;99.90
30678;DHT22;17437;47.188;8.896;2023-01-15T10:40:00;6.20;99.90
30678;DHT22;17437;47.188;8.896;2023-01-15T10:42:35;6.20;99.90
30678;DHT22;17437;47.188;8.896;2023-01-15T10:45:12;6.10;99.90
30678;DHT22;17437;47.188;8.896;2023-01-15T10:47:45;6.00;99.90
30678;DHT22;17437;47.188;8.896;2023-01-15T10:50:21;6.00;99.90
30678;DHT22;17437;47.188;8.896;2023-01-15T10:52:59;6.00;99.90
30678;DHT22;17437;47.188;8.896;2023-01-15T10:55:33;6.00;99.90
30678;DHT22;17437;47.188;8.896;2023-01-15T10:58:12;6.00;99.90
30678;DHT22;17437;47.188;8.896;2023-01-15T11:00:48;5.80;99.90
30678;DHT22;17437;47.188;8.896;2023-01-15T11:03:21;5.80;99.90
30678;DHT22;17437;47.188;8.896;2023-01-15T11:05:53;5.80;99.90
30678;DHT22;17437;47.188;8.896;2023-01-15T11:08:26;5.70;99.90
30678;DHT22;17437;47.188;8.896;2023-01-15T11:11:08;5.60;99.90
30678;DHT22;17437;47.188;8.896;2023-01-15T11:13:37;5.60;99.90
30678;DHT22;17437;47.188;8.896;2023-01-15T11:16:27;5.50;99.90
30678;DHT22;17437;47.188;8.896;2023-01-15T11:19:22;5.50;99.90
30678;DHT22;17437;47.188;8.896;2023-01-15T11:22:11;5.40;99.90
30678;DHT22;17437;47.188;8.896;2023-01-15T11:24:48;5.30;99.90
30678;DHT22;17437;47.188;8.896;2023-01-15T11:27:22;5.20;99.90
30678;DHT22;17437;47.188;8.896;2023-01-15T11:29:56;5.20;99.90
30678;DHT22;17437;47.188;8.896;2023-01-15T11:32:31;5.20;99.90
30678;DHT22;17437;47.188;8.896;2023-01-15T11:35:13;5.10;99.90
30678;DHT22;17437;47.188;8.896;2023-01-15T11:37:45;5.10;99.90
30678;DHT22;17437;47.188;8.896;2023-01-15T11:40:19;5.10;99.90
30678;DHT22;17437;47.188;8.896;2023-01-15T11:42:52;5.10;99.90
30678;DHT22;17437;47.188;8.896;2023-01-15T11:45:49;5.10;99.90
30678;DHT22;17437;47.188;8.896;2023-01-15T11:48:46;5.00;99.90
30678;DHT22;17437;47.188;8.896;2023-01-15T11:51:39;4.90;99.90
30678;DHT22;17437;47.188;8.896;2023-01-15T11:54:13;4.90;99.90
30678;DHT22;17437;47.188;8.896;2023-01-15T11:56:45;4.90;99.90
30678;DHT22;17437;47.188;8.896;2023-01-15T11:59:18;4.80;99.90
30678;DHT22;17437;47.188;8.896;2023-01-15T12:01:53;4.70;99.90
30678;DHT22;17437;47.188;8.896;2023-01-15T12:04:31;4.60;99.90
30678;DHT22;17437;47.188;8.896;2023-01-15T12:07:04;4.60;99.90
30678;DHT22;17437;47.188;8.896;2023-01-15T12:09:50;4.60;99.90
30678;DHT22;17437;47.188;8.896;2023-01-15T12:12:25;4.60;99.90
30678;DHT22;17437;47.188;8.896;2023-01-15T12:15:24;4.50;99.90
30678;DHT22;17437;47.188;8.896;2023-01-15T12:21:16;4.50;99.90
30678;DHT22;17437;47.188;8.896;2023-01-15T12:24:10;4.50;99.90
30678;DHT22;17437;47.188;8.896;2023-01-15T12:26:47;4.50;99.90
30678;DHT22;17437;47.188;8.896;2023-01-15T12:29:20;4.40;99.90
30678;DHT22;17437;47.188;8.896;2023-01-15T12:31:55;4.40;99.90
30678;DHT22;17437;47.188;8.896;2023-01-15T12:34:31;4.30;99.90
30678;DHT22;17437;47.188;8.896;2023-01-15T12:37:05;4.30;99.90
30678;DHT22;17437;47.188;8.896;2023-01-15T12:39:40;4.30;99.90
30678;DHT22;17437;47.188;8.896;2023-01-15T12:42:14;4.20;99.90
30678;DHT22;17437;47.188;8.896;2023-01-15T12:45:06;4.20;99.90
30678;DHT22;17437;47.188;8.896;2023-01-15T12:47:43;4.10;99.90
30678;DHT22;17437;47.188;8.896;2023-01-15T12:50:34;4.10;99.90
30678;DHT22;17437;47.188;8.896;2023-01-15T12:53:09;4.00;99.90
30678;DHT22;17437;47.188;8.896;2023-01-15T12:55:44;4.00;99.90
30678;DHT22;17437;47.188;8.896;2023-01-15T12:58:27;3.90;99.90
30678;DHT22;17437;47.188;8.896;2023-01-15T13:01:04;3.90;99.90
30678;DHT22;17437;47.188;8.896;2023-01-15T13:03:47;3.90;99.90
30678;DHT22;17437;47.188;8.896;2023-01-15T13:06:19;3.80;99.90
30678;DHT22;17437;47.188;8.896;2023-01-15T13:08:57;3.80;99.90
30678;DHT22;17437;47.188;8.896;2023-01-15T13:14:14;3.80;99.90
30678;DHT22;17437;47.188;8.896;2023-01-15T13:16:50;3.80;99.90
30678;DHT22;17437;47.188;8.896;2023-01-15T13:19:31;3.70;99.90
30678;DHT22;17437;47.188;8.896;2023-01-15T13:22:05;3.70;99.90
30678;DHT22;17437;47.188;8.896;2023-01-15T13:28:06;3.70;99.90
30678;DHT22;17437;47.188;8.896;2023-01-15T13:30:46;3.70;99.90
30678;DHT22;17437;47.188;8.896;2023-01-15T13:33:23;3.80;99.90
30678;DHT22;17437;47.188;8.896;2023-01-15T13:36:00;3.80;99.90
30678;DHT22;17437;47.188;8.896;2023-01-15T13:38:32;3.80;99.90
30678;DHT22;17437;47.188;8.896;2023-01-15T13:41:06;3.90;99.90
30678;DHT22;17437;47.188;8.896;2023-01-15T13:43:40;3.90;99.90
30678;DHT22;17437;47.188;8.896;2023-01-15T13:46:18;4.00;99.90
30678;DHT22;17437;47.188;8.896;2023-01-15T13:48:47;4.10;99.90
30678;DHT22;17437;47.188;8.896;2023-01-15T13:51:26;4.10;99.90
30678;DHT22;17437;47.188;8.896;2023-01-15T13:54:00;4.10;99.90
30678;DHT22;17437;47.188;8.896;2023-01-15T13:56:32;4.10;99.90
30678;DHT22;17437;47.188;8.896;2023-01-15T13:59:23;4.10;99.90
30678;DHT22;17437;47.188;8.896;2023-01-15T14:01:38;4.10;99.90
30678;DHT22;17437;47.188;8.896;2023-01-15T14:04:14;4.10;99.90
30678;DHT22;17437;47.188;8.896;2023-01-15T14:06:47;4.10;99.90
30678;DHT22;17437;47.188;8.896;2023-01-15T14:09:28;4.20;99.90
30678;DHT22;17437;47.188;8.896;2023-01-15T14:12:09;4.10;99.90
30678;DHT22;17437;47.188;8.896;2023-01-15T14:15:18;4.10;99.90
30678;DHT22;17437;47.188;8.896;2023-01-15T14:18:01;4.00;99.90
30678;DHT22;17437;47.188;8.896;2023-01-15T14:20:58;4.00;99.90
30678;DHT22;17437;47.188;8.896;2023-01-15T14:23:41;4.00;99.90
30678;DHT22;17437;47.188;8.896;2023-01-15T14:26:15;4.00;99.90
30678;DHT22;17437;47.188;8.896;2023-01-15T14:28:59;4.00;99.90
30678;DHT22;17437;47.188;8.896;2023-01-15T14:31:42;4.00;99.90
30678;DHT22;17437;47.188;8.896;2023-01-15T14:34:17;4.00;99.90
30678;DHT22;17437;47.188;8.896;2023-01-15T14:36:53;4.00;99.90
30678;DHT22;17437;47.188;8.896;2023-01-15T14:39:37;4.20;99.90
30678;DHT22;17437;47.188;8.896;2023-01-15T14:42:13;4.20;99.90
30678;DHT22;17437;47.188;8.896;2023-01-15T14:45:06;4.30;99.90
30678;DHT22;17437;47.188;8.896;2023-01-15T14:47:45;4.30;99.90
30678;DHT22;17437;47.188;8.896;2023-01-15T14:50:30;4.50;99.90
30678;DHT22;17437;47.188;8.896;2023-01-15T14:56:00;4.70;99.90
30678;DHT22;17437;47.188;8.896;2023-01-15T14:58:36;4.80;99.90
30678;DHT22;17437;47.188;8.896;2023-01-15T15:01:17;4.70;99.90
30678;DHT22;17437;47.188;8.896;2023-01-15T15:03:52;4.70;99.90
30678;DHT22;17437;47.188;8.896;2023-01-15T15:06:26;4.70;99.90
30678;DHT22;17437;47.188;8.896;2023-01-15T15:09:01;4.70;99.90
30678;DHT22;17437;47.188;8.896;2023-01-15T15:11:37;4.70;99.90
30678;DHT22;17437;47.188;8.896;2023-01-15T15:14:26;4.70;99.90
30678;DHT22;17437;47.188;8.896;2023-01-15T15:17:01;4.70;99.90
30678;DHT22;17437;47.188;8.896;2023-01-15T15:19:35;4.60;99.90
30678;DHT22;17437;47.188;8.896;2023-01-15T15:22:09;4.60;99.90
30678;DHT22;17437;47.188;8.896;2023-01-15T15:24:44;4.70;99.90
30678;DHT22;17437;47.188;8.896;2023-01-15T15:27:18;4.60;99.90
30678;DHT22;17437;47.188;8.896;2023-01-15T15:29:50;4.70;99.90
30678;DHT22;17437;47.188;8.896;2023-01-15T15:32:23;4.70;99.90
30678;DHT22;17437;47.188;8.896;2023-01-15T15:34:55;4.60;99.90
30678;DHT22;17437;47.188;8.896;2023-01-15T15:37:27;4.50;99.90
30678;DHT22;17437;47.188;8.896;2023-01-15T15:40:00;4.40;99.90
30678;DHT22;17437;47.188;8.896;2023-01-15T15:42:35;4.30;99.90
30678;DHT22;17437;47.188;8.896;2023-01-15T15:45:26;4.30;99.90
30678;DHT22;17437;47.188;8.896;2023-01-15T15:48:31;4.20;99.90
30678;DHT22;17437;47.188;8.896;2023-01-15T15:51:28;4.20;99.90
30678;DHT22;17437;47.188;8.896;2023-01-15T15:54:10;4.20;99.90
30678;DHT22;17437;47.188;8.896;2023-01-15T15:56:45;4.20;99.90
30678;DHT22;17437;47.188;8.896;2023-01-15T15:59:30;4.30;99.90
30678;DHT22;17437;47.188;8.896;2023-01-15T16:02:17;4.20;99.90
30678;DHT22;17437;47.188;8.896;2023-01-15T16:04:51;4.20;99.90
30678;DHT22;17437;47.188;8.896;2023-01-15T16:07:24;4.10;99.90
30678;DHT22;17437;47.188;8.896;2023-01-15T16:09:59;4.10;99.90
30678;DHT22;17437;47.188;8.896;2023-01-15T16:12:33;4.10;99.90
30678;DHT22;17437;47.188;8.896;2023-01-15T16:15:12;4.00;99.90
30678;DHT22;17437;47.188;8.896;2023-01-15T16:17:46;3.90;99.90
30678;DHT22;17437;47.188;8.896;2023-01-15T16:20:20;3.90;99.90
30678;DHT22;17437;47.188;8.896;2023-01-15T16:22:55;3.80;99.90
30678;DHT22;17437;47.188;8.896;2023-01-15T16:25:28;3.70;99.90
30678;DHT22;17437;47.188;8.896;2023-01-15T16:28:02;3.50;99.90
30678;DHT22;17437;47.188;8.896;2023-01-15T16:30:34;3.40;99.90
30678;DHT22;17437;47.188;8.896;2023-01-15T16:33:06;3.30;99.90
30678;DHT22;17437;47.188;8.896;2023-01-15T16:35:38;3.10;99.90
30678;DHT22;17437;47.188;8.896;2023-01-15T16:38:17;3.00;99.90
30678;DHT22;17437;47.188;8.896;2023-01-15T16:40:49;3.00;99.90
30678;DHT22;17437;47.188;8.896;2023-01-15T16:43:23;2.90;99.90
30678;DHT22;17437;47.188;8.896;2023-01-15T16:46:02;2.90;99.90
30678;DHT22;17437;47.188;8.896;2023-01-15T16:48:35;2.80;99.90
30678;DHT22;17437;47.188;8.896;2023-01-15T16:51:30;2.80;99.90
30678;DHT22;17437;47.188;8.896;2023-01-15T16:54:03;2.60;99.90
30678;DHT22;17437;47.188;8.896;2023-01-15T16:56:51;2.60;99.90
30678;DHT22;17437;47.188;8.896;2023-01-15T16:59:53;2.50;99.90